createdAt,value
2023-06-17T00:01:00.909Z,100036.84
2023-06-17T00:03:28.725Z,100032.19
2023-06-17T00:05:55.837Z,100031.78
2023-06-17T00:08:23.006Z,100029.25
2023-06-17T00:10:50.494Z,100027.44
2023-06-17T00:13:20.770Z,100025.09
2023-06-17T00:15:52.166Z,100023.44
2023-06-17T00:18:21.024Z,100026.06
2023-06-17T00:20:49.361Z,100026.16
2023-06-17T00:23:16.824Z,100014.72
2023-06-17T00:25:44.308Z,100018.81
2023-06-17T00:28:11.504Z,100017.16
2023-06-17T00:30:38.780Z,100020.25
2023-06-17T00:33:06.630Z,100016.59
2023-06-17T00:35:35.166Z,100014.31
2023-06-17T00:38:02.560Z,100014.09
2023-06-17T00:40:30.028Z,100012.50
2023-06-17T00:42:57.183Z,100014.16
2023-06-17T00:45:24.416Z,100005.16
2023-06-17T00:47:52.005Z,100009.69
2023-06-17T00:50:20.722Z,100004.28
2023-06-17T00:52:52.224Z,100004.66
2023-06-17T00:55:19.770Z,99993.19
2023-06-17T00:57:48.657Z,99994.66
2023-06-17T01:00:16.418Z,99991.59
2023-06-17T01:02:46.371Z,99993.53
2023-06-17T01:05:17.892Z,99987.59
2023-06-17T01:08:13.984Z,99983.69
2023-06-17T01:10:52.019Z,99987.38
2023-06-17T01:13:20.212Z,99983.84
2023-06-17T01:15:47.796Z,99979.75
2023-06-17T01:18:19.120Z,99981.69
2023-06-17T01:20:50.053Z,99984.56
2023-06-17T01:23:18.088Z,99987.50
2023-06-17T01:25:47.130Z,99986.97
2023-06-17T01:28:21.285Z,99998.41
2023-06-17T01:30:49.197Z,99994.13
2023-06-17T01:33:17.129Z,99990.84
2023-06-17T01:35:53.857Z,99993.09
2023-06-17T01:38:30.644Z,99993.78
2023-06-17T01:41:09.365Z,100000.97
2023-06-17T01:43:37.674Z,99999.19
2023-06-17T01:46:05.552Z,99998.06
2023-06-17T01:48:32.947Z,99993.66
2023-06-17T01:51:00.589Z,99994.37
2023-06-17T01:53:28.282Z,99992.56
2023-06-17T01:55:55.817Z,99994.06
2023-06-17T01:58:23.552Z,99986.75
2023-06-17T02:00:50.932Z,99991.16
2023-06-17T02:03:18.731Z,99991.16
2023-06-17T02:05:46.017Z,99994.22
2023-06-17T02:08:15.291Z,99992.69
2023-06-17T02:10:42.918Z,99991.16
2023-06-17T02:13:10.080Z,99989.50
2023-06-17T02:15:37.374Z,99984.28
2023-06-17T02:18:05.559Z,99999.41
2023-06-17T02:20:33.119Z,99998.59
2023-06-17T02:23:00.398Z,99995.28
2023-06-17T02:25:27.704Z,99995.28
2023-06-17T02:27:55.635Z,99989.44
2023-06-17T02:30:23.333Z,99999.38
2023-06-17T02:32:50.748Z,99991.22
2023-06-17T02:35:20.851Z,99997.56
2023-06-17T02:37:48.211Z,99994.34
2023-06-17T02:40:15.430Z,99998.50
2023-06-17T02:42:42.937Z,100001.25
2023-06-17T02:45:12.841Z,100000.81
2023-06-17T02:47:42.090Z,99997.88
2023-06-17T02:50:10.388Z,100000.16
2023-06-17T02:52:38.918Z,100005.53
2023-06-17T02:55:07.116Z,99997.78
2023-06-17T02:57:34.638Z,100003.59
2023-06-17T03:00:02.060Z,100008.12
2023-06-17T03:02:29.646Z,100000.56
2023-06-17T03:04:57.974Z,99996.13
2023-06-17T03:07:25.787Z,100003.16
2023-06-17T03:09:53.098Z,100001.47
2023-06-17T03:12:20.715Z,100002.94
2023-06-17T03:14:48.713Z,100002.41
2023-06-17T03:17:16.169Z,100007.63
2023-06-17T03:19:44.945Z,100005.38
2023-06-17T03:22:12.553Z,100005.84
2023-06-17T03:24:39.967Z,100012.75
2023-06-17T03:27:07.609Z,100009.03
2023-06-17T03:29:37.735Z,100010.31
2023-06-17T03:32:05.962Z,100008.50
2023-06-17T03:34:34.313Z,100016.69
2023-06-17T03:37:06.309Z,100021.00
2023-06-17T03:39:33.828Z,100022.50
2023-06-17T03:42:01.616Z,100032.66
2023-06-17T03:44:28.843Z,100036.94
2023-06-17T03:46:58.269Z,100033.06
2023-06-17T03:49:25.828Z,100034.03
2023-06-17T03:51:53.220Z,100040.00
2023-06-17T03:54:20.755Z,100039.03
2023-06-17T03:56:48.074Z,100031.84
2023-06-17T03:59:16.316Z,100022.28
2023-06-17T04:01:45.356Z,100026.03
2023-06-17T04:04:12.906Z,100024.69
2023-06-17T04:06:40.045Z,100025.75
2023-06-17T04:09:07.264Z,100025.50
2023-06-17T04:11:34.836Z,100035.84
2023-06-17T04:14:02.087Z,100029.12
2023-06-17T04:16:31.892Z,100037.31
2023-06-17T04:18:59.633Z,100029.88
2023-06-17T04:21:26.932Z,100042.31
2023-06-17T04:23:54.259Z,100042.34
2023-06-17T04:26:21.745Z,100036.44
2023-06-17T04:28:49.252Z,100047.06
2023-06-17T04:31:16.692Z,100036.56
2023-06-17T04:33:44.430Z,100046.28
2023-06-17T04:36:12.275Z,100046.00
2023-06-17T04:38:40.774Z,100057.75
2023-06-17T04:41:09.667Z,100052.22
2023-06-17T04:43:39.897Z,100051.00
2023-06-17T04:46:09.304Z,100062.59
2023-06-17T04:48:38.441Z,100053.47
2023-06-17T04:51:07.029Z,100058.72
2023-06-17T04:53:34.735Z,100069.00
2023-06-17T04:56:05.606Z,100057.69
2023-06-17T04:58:32.899Z,100062.09
2023-06-17T05:01:00.775Z,100065.13
2023-06-17T05:03:28.384Z,100061.81
2023-06-17T05:05:56.160Z,100064.59
2023-06-17T05:08:23.960Z,100065.91
2023-06-17T05:10:51.325Z,100069.81
2023-06-17T05:13:18.601Z,100073.28
2023-06-17T05:15:46.447Z,100073.19
2023-06-17T05:18:13.728Z,100068.63
2023-06-17T05:20:41.143Z,100069.03
2023-06-17T05:23:09.155Z,100076.66
2023-06-17T05:25:36.309Z,100077.06
2023-06-17T05:28:06.481Z,100071.41
2023-06-17T05:30:34.145Z,100076.25
2023-06-17T05:33:01.923Z,100084.53
2023-06-17T05:35:29.795Z,100087.03
2023-06-17T05:37:58.132Z,100076.66
2023-06-17T05:40:25.448Z,100096.72
2023-06-17T05:42:52.932Z,100091.19
2023-06-17T05:45:20.752Z,100089.38
2023-06-17T05:47:48.958Z,100091.31
2023-06-17T05:50:16.950Z,100098.66
2023-06-17T05:52:46.768Z,100099.75
2023-06-17T05:55:14.149Z,100101.41
2023-06-17T05:57:41.718Z,100103.88
2023-06-17T06:00:10.375Z,100112.34
2023-06-17T06:02:40.708Z,100113.59
2023-06-17T06:05:08.686Z,100106.97
2023-06-17T06:07:36.012Z,100106.38
2023-06-17T06:10:04.563Z,100104.75
2023-06-17T06:12:32.369Z,100103.06
2023-06-17T06:14:59.711Z,100095.28
2023-06-17T06:17:27.240Z,100095.81
2023-06-17T06:19:54.821Z,100107.72
2023-06-17T06:22:22.122Z,100110.06
2023-06-17T06:24:49.497Z,100099.94
2023-06-17T06:27:17.056Z,100095.34
2023-06-17T06:29:44.533Z,100097.25
2023-06-17T06:32:11.891Z,100096.53
2023-06-17T06:34:39.470Z,100101.47
2023-06-17T06:37:06.917Z,100102.69
2023-06-17T06:39:35.673Z,100101.72
2023-06-17T06:42:03.287Z,100105.41
2023-06-17T06:44:34.715Z,100102.38
2023-06-17T06:47:01.946Z,100111.41
2023-06-17T06:49:30.837Z,100116.75
2023-06-17T06:51:58.073Z,100111.03
2023-06-17T06:54:25.493Z,100112.41
2023-06-17T06:56:52.998Z,100119.09
2023-06-17T06:59:20.251Z,100120.03
2023-06-17T07:01:47.489Z,100115.13
2023-06-17T07:04:15.864Z,100124.78
2023-06-17T07:06:44.238Z,100126.13
2023-06-17T07:09:12.521Z,100117.41
2023-06-17T07:11:40.599Z,100116.06
2023-06-17T07:14:08.573Z,100109.31
2023-06-17T07:16:36.295Z,100110.25
2023-06-17T07:19:04.194Z,100113.44
2023-06-17T07:21:32.239Z,100108.59
2023-06-17T07:24:00.196Z,100108.34
2023-06-17T07:26:27.953Z,100121.44
2023-06-17T07:28:55.400Z,100117.03
2023-06-17T07:31:24.222Z,100106.53
2023-06-17T07:33:57.879Z,100113.34
2023-06-17T07:36:27.008Z,100116.78
2023-06-17T07:38:54.810Z,100118.44
2023-06-17T07:41:22.119Z,100115.00
2023-06-17T07:43:49.303Z,100115.91
2023-06-17T07:46:17.034Z,100112.00
2023-06-17T07:48:44.277Z,100104.22
2023-06-17T07:51:11.672Z,100110.19
2023-06-17T07:53:39.191Z,100107.22
2023-06-17T07:56:06.943Z,100102.78
2023-06-17T07:58:34.232Z,100106.22
2023-06-17T08:01:02.728Z,100104.87
2023-06-17T08:03:30.426Z,100118.00
2023-06-17T08:05:58.280Z,100115.25
2023-06-17T08:08:25.541Z,100112.94
2023-06-17T08:10:53.029Z,100114.81
2023-06-17T08:13:20.260Z,100107.09
2023-06-17T08:15:47.453Z,100123.28
2023-06-17T08:18:15.087Z,100125.91
2023-06-17T08:20:42.485Z,100124.09
2023-06-17T08:23:09.707Z,100122.34
2023-06-17T08:25:37.254Z,100121.19
2023-06-17T08:28:04.629Z,100110.53
2023-06-17T08:30:31.866Z,100119.81
2023-06-17T08:32:59.460Z,100111.87
2023-06-17T08:35:26.668Z,100122.28
2023-06-17T08:37:54.373Z,100123.78
2023-06-17T08:40:23.683Z,100124.66
2023-06-17T08:43:03.841Z,100125.69
2023-06-17T08:45:31.764Z,100115.31
2023-06-17T08:47:59.457Z,100112.03
2023-06-17T08:50:28.061Z,100111.91
2023-06-17T08:52:56.066Z,100117.03
2023-06-17T08:55:23.333Z,100116.19
2023-06-17T08:57:54.098Z,100121.63
2023-06-17T09:00:21.962Z,100118.03
2023-06-17T09:02:49.786Z,100126.13
2023-06-17T09:05:17.586Z,100115.69
2023-06-17T09:07:45.582Z,100118.50
2023-06-17T09:10:15.914Z,100120.31
2023-06-17T09:12:43.145Z,100114.38
2023-06-17T09:15:18.149Z,100112.69
2023-06-17T09:17:46.842Z,100118.81
2023-06-17T09:20:16.459Z,100114.38
2023-06-17T09:22:45.956Z,100106.44
2023-06-17T09:25:15.502Z,100119.00
2023-06-17T09:28:11.150Z,100118.78
2023-06-17T09:30:38.476Z,100113.34
2023-06-17T09:33:18.052Z,100115.34
2023-06-17T09:35:46.039Z,100112.03
2023-06-17T09:38:16.718Z,100118.66
2023-06-17T09:40:43.981Z,100115.50
2023-06-17T09:43:26.614Z,100115.50
2023-06-17T09:46:00.862Z,100125.91
2023-06-17T09:48:36.584Z,100113.59
2023-06-17T09:51:10.370Z,100116.75
2023-06-17T09:53:39.073Z,100116.06
2023-06-17T09:56:12.020Z,100112.88
2023-06-17T09:58:44.402Z,100109.59
2023-06-17T10:01:13.003Z,100104.59
2023-06-17T10:03:43.630Z,100105.06
2023-06-17T10:06:13.094Z,100106.25
2023-06-17T10:08:42.867Z,100113.47
2023-06-17T10:11:12.863Z,100110.47
2023-06-17T10:13:40.975Z,100105.00
2023-06-17T10:16:13.974Z,100111.97
2023-06-17T10:18:42.577Z,100116.94
2023-06-17T10:21:12.931Z,100124.66
2023-06-17T10:23:41.856Z,100126.53
2023-06-17T10:26:09.611Z,100121.44
2023-06-17T10:29:01.766Z,100124.25
2023-06-17T10:31:33.907Z,100124.22
2023-06-17T10:34:02.905Z,100127.56
2023-06-17T10:36:30.828Z,100129.56
2023-06-17T10:39:08.138Z,100126.41
2023-06-17T10:41:41.804Z,100131.50
2023-06-17T10:44:28.473Z,100120.06
2023-06-17T10:46:56.868Z,100129.13
2023-06-17T10:49:24.137Z,100129.31
2023-06-17T10:51:58.492Z,100124.66
2023-06-17T10:54:29.226Z,100120.19
2023-06-17T10:56:56.450Z,100119.19
2023-06-17T10:59:31.652Z,100127.22
2023-06-17T11:02:04.896Z,100124.41
2023-06-17T11:04:33.326Z,100130.47
2023-06-17T11:07:01.967Z,100116.41
2023-06-17T11:09:30.552Z,100119.19
2023-06-17T11:11:58.491Z,100111.56
2023-06-17T11:14:28.147Z,100101.41
2023-06-17T11:16:55.415Z,100106.03
2023-06-17T11:19:23.301Z,100106.53
2023-06-17T11:22:04.631Z,100110.81
2023-06-17T11:24:32.643Z,100113.94
2023-06-17T11:27:01.558Z,100118.81
2023-06-17T11:29:30.236Z,100124.47
2023-06-17T11:32:01.417Z,100113.72
2023-06-17T11:34:32.905Z,100112.97
2023-06-17T11:37:02.075Z,100115.28
2023-06-17T11:39:32.809Z,100120.97
2023-06-17T11:42:03.102Z,100127.91
2023-06-17T11:44:34.429Z,100110.59
2023-06-17T11:47:09.881Z,100109.31
2023-06-17T11:49:41.924Z,100106.38
2023-06-17T11:52:11.040Z,100110.97
2023-06-17T11:54:51.357Z,100109.47
2023-06-17T11:57:22.956Z,100105.31
2023-06-17T11:59:59.427Z,100103.97
2023-06-17T12:02:29.639Z,100115.72
2023-06-17T12:05:02.251Z,100101.53
2023-06-17T12:07:30.112Z,100094.75
2023-06-17T12:09:57.970Z,100090.81
2023-06-17T12:12:26.400Z,100095.09
2023-06-17T12:15:14.852Z,100101.66
2023-06-17T12:17:45.486Z,100099.03
2023-06-17T12:20:16.940Z,100093.59
2023-06-17T12:22:45.420Z,100100.53
2023-06-17T12:25:13.091Z,100081.97
2023-06-17T12:27:41.309Z,100098.44
2023-06-17T12:30:10.298Z,100099.75
2023-06-17T12:32:38.318Z,100103.75
2023-06-17T12:35:08.087Z,100093.28
2023-06-17T12:37:37.144Z,100084.81
2023-06-17T12:40:04.653Z,100080.31
2023-06-17T12:42:32.393Z,100081.44
2023-06-17T12:45:00.042Z,100081.56
2023-06-17T12:47:27.780Z,100081.88
2023-06-17T12:49:55.112Z,100075.50
2023-06-17T12:52:22.676Z,100081.06
2023-06-17T12:55:00.517Z,100067.72
2023-06-17T12:57:28.628Z,100077.13
2023-06-17T12:59:56.021Z,100071.59
2023-06-17T13:02:23.380Z,100071.34
2023-06-17T13:04:50.957Z,100070.44
2023-06-17T13:07:18.677Z,100075.13
2023-06-17T13:09:45.925Z,100078.91
2023-06-17T13:12:14.869Z,100074.59
2023-06-17T13:14:42.464Z,100085.22
2023-06-17T13:17:10.999Z,100076.78
2023-06-17T13:19:38.798Z,100075.63
2023-06-17T13:22:06.309Z,100070.75
2023-06-17T13:24:33.576Z,100077.75
2023-06-17T13:27:01.135Z,100081.13
2023-06-17T13:29:28.484Z,100082.13
2023-06-17T13:31:56.425Z,100081.03
2023-06-17T13:34:24.415Z,100075.34
2023-06-17T13:36:51.612Z,100083.88
2023-06-17T13:39:18.843Z,100083.78
2023-06-17T13:41:46.210Z,100083.88
2023-06-17T13:44:14.514Z,100089.28
2023-06-17T13:46:41.969Z,100098.41
2023-06-17T13:49:09.410Z,100076.34
2023-06-17T13:51:36.531Z,100083.94
2023-06-17T13:54:04.162Z,100089.03
2023-06-17T13:56:31.697Z,100075.03
2023-06-17T13:58:58.879Z,100079.12
2023-06-17T14:01:26.094Z,100083.38
2023-06-17T14:03:53.911Z,100081.22
2023-06-17T14:06:21.759Z,100083.59
2023-06-17T14:08:48.967Z,100081.03
2023-06-17T14:11:16.366Z,100082.75
2023-06-17T14:13:44.562Z,100081.75
2023-06-17T14:16:12.850Z,100077.28
2023-06-17T14:18:40.432Z,100085.78
2023-06-17T14:21:08.017Z,100088.16
2023-06-17T14:23:53.769Z,100093.38
2023-06-17T14:26:21.267Z,100089.72
2023-06-17T14:28:48.801Z,100083.31
2023-06-17T14:31:15.959Z,100081.13
2023-06-17T14:33:43.673Z,100081.41
2023-06-17T14:36:11.161Z,100081.03
2023-06-17T14:38:38.320Z,100079.56
2023-06-17T14:41:05.805Z,100086.25
2023-06-17T14:43:33.257Z,100068.47
2023-06-17T14:46:00.683Z,100079.09
2023-06-17T14:48:28.067Z,100066.31
2023-06-17T14:50:55.595Z,100065.62
2023-06-17T14:53:32.468Z,100060.25
2023-06-17T14:56:30.214Z,100078.66
2023-06-17T14:58:57.797Z,100062.19
2023-06-17T15:01:29.163Z,100048.44
2023-06-17T15:03:56.503Z,100064.56
2023-06-17T15:06:23.709Z,100069.97
2023-06-17T15:09:15.867Z,100075.44
2023-06-17T15:11:48.908Z,100066.28
2023-06-17T15:14:16.409Z,100065.03
2023-06-17T15:16:43.546Z,100069.38
2023-06-17T15:19:10.973Z,100065.25
2023-06-17T15:21:38.846Z,100062.34
2023-06-17T15:24:07.077Z,100066.59
2023-06-17T15:26:34.940Z,100064.16
2023-06-17T15:29:02.840Z,100055.94
2023-06-17T15:31:30.070Z,100064.09
2023-06-17T15:33:57.316Z,100061.81
2023-06-17T15:36:24.838Z,100068.66
2023-06-17T15:38:52.020Z,100063.91
2023-06-17T15:41:19.387Z,100067.31
2023-06-17T15:43:46.891Z,100064.75
2023-06-17T15:46:14.180Z,100060.69
2023-06-17T15:48:41.727Z,100061.63
2023-06-17T15:51:09.245Z,100063.47
2023-06-17T15:53:36.566Z,100067.56
2023-06-17T15:56:03.914Z,100061.09
2023-06-17T15:58:32.326Z,100066.66
2023-06-17T16:00:59.956Z,100067.75
2023-06-17T16:03:31.562Z,100073.69
2023-06-17T16:05:59.848Z,100071.88
2023-06-17T16:08:27.298Z,100071.97
2023-06-17T16:10:54.917Z,100073.34
2023-06-17T16:13:23.261Z,100072.97
2023-06-17T16:15:50.872Z,100068.31
2023-06-17T16:18:18.450Z,100072.62
2023-06-17T16:20:46.369Z,100072.97
2023-06-17T16:23:14.506Z,100080.94
2023-06-17T16:25:54.931Z,100089.62
2023-06-17T16:28:22.977Z,100082.94
2023-06-17T16:30:50.599Z,100082.94
2023-06-17T16:33:17.831Z,100084.50
2023-06-17T16:35:45.105Z,100092.84
2023-06-17T16:38:12.592Z,100093.69
2023-06-17T16:40:39.818Z,100092.56
2023-06-17T16:43:07.032Z,100102.00
2023-06-17T16:45:35.367Z,100103.19
2023-06-17T16:48:02.668Z,100106.31
2023-06-17T16:50:29.830Z,100103.75
2023-06-17T16:52:57.354Z,100108.06
2023-06-17T16:55:24.567Z,100112.97
2023-06-17T16:57:51.726Z,100114.94
2023-06-17T17:00:19.870Z,100109.78
2023-06-17T17:02:47.437Z,100121.06
2023-06-17T17:05:14.710Z,100116.97
2023-06-17T17:07:42.239Z,100117.12
2023-06-17T17:10:09.646Z,100124.00
2023-06-17T17:12:36.826Z,100127.59
2023-06-17T17:15:04.495Z,100132.19
2023-06-17T17:17:32.338Z,100127.59
2023-06-17T17:19:59.515Z,100123.19
2023-06-17T17:22:27.296Z,100134.31
2023-06-17T17:24:54.572Z,100123.59
2023-06-17T17:27:21.827Z,100122.78
2023-06-17T17:29:49.304Z,100124.66
2023-06-17T17:32:16.498Z,100122.69
2023-06-17T17:34:43.621Z,100129.41
2023-06-17T17:37:11.016Z,100134.53
2023-06-17T17:39:38.335Z,100132.25
2023-06-17T17:42:06.055Z,100138.19
2023-06-17T17:44:33.544Z,100143.16
2023-06-17T17:47:00.829Z,100137.25
2023-06-17T17:49:28.033Z,100143.69
2023-06-17T17:51:55.601Z,100145.97
2023-06-17T17:54:25.035Z,100146.53
2023-06-17T17:56:52.339Z,100138.44
2023-06-17T17:59:19.830Z,100142.94
2023-06-17T18:01:47.065Z,100145.13
2023-06-17T18:04:14.664Z,100146.84
2023-06-17T18:06:41.921Z,100147.22
2023-06-17T18:09:09.191Z,100149.22
2023-06-17T18:11:37.248Z,100163.50
2023-06-17T18:14:04.524Z,100164.81
2023-06-17T18:16:33.198Z,100168.53
2023-06-17T18:19:00.779Z,100168.56
2023-06-17T18:21:29.818Z,100168.56
2023-06-17T18:23:57.138Z,100180.81
2023-06-17T18:26:25.400Z,100180.69
2023-06-17T18:28:52.580Z,100185.81
2023-06-17T18:31:22.635Z,100182.66
2023-06-17T18:33:50.109Z,100191.25
2023-06-17T18:36:17.433Z,100193.91
2023-06-17T18:38:44.643Z,100194.09
2023-06-17T18:41:12.185Z,100204.31
2023-06-17T18:43:39.372Z,100205.09
2023-06-17T18:46:06.700Z,100208.53
2023-06-17T18:48:34.265Z,100211.41
2023-06-17T18:51:01.584Z,100204.69
2023-06-17T18:53:28.771Z,100209.87
2023-06-17T18:55:56.644Z,100202.22
2023-06-17T18:58:23.991Z,100213.03
2023-06-17T19:00:51.251Z,100216.84
2023-06-17T19:03:19.093Z,100221.22
2023-06-17T19:05:46.311Z,100226.59
2023-06-17T19:08:13.508Z,100226.59
2023-06-17T19:10:41.084Z,100232.56
2023-06-17T19:13:08.324Z,100224.44
2023-06-17T19:15:36.395Z,100228.97
2023-06-17T19:18:04.048Z,100231.50
2023-06-17T19:20:31.375Z,100232.31
2023-06-17T19:22:58.636Z,100241.69
2023-06-17T19:25:26.957Z,100235.50
2023-06-17T19:27:54.181Z,100242.19
2023-06-17T19:30:21.696Z,100250.25
2023-06-17T19:32:49.381Z,100249.59
2023-06-17T19:35:16.649Z,100261.06
2023-06-17T19:37:44.023Z,100263.84
2023-06-17T19:40:12.283Z,100264.37
2023-06-17T19:42:39.477Z,100269.38
2023-06-17T19:45:07.297Z,100264.13
2023-06-17T19:47:34.859Z,100268.56
2023-06-17T19:50:02.092Z,100261.88
2023-06-17T19:52:29.664Z,100270.63
2023-06-17T19:54:57.721Z,100266.19
2023-06-17T19:57:24.935Z,100269.66
2023-06-17T19:59:52.252Z,100258.97
2023-06-17T20:02:20.676Z,100257.47
2023-06-17T20:04:48.347Z,100254.00
2023-06-17T20:07:15.661Z,100266.91
2023-06-17T20:09:42.858Z,100261.91
2023-06-17T20:12:12.421Z,100254.88
2023-06-17T20:14:39.788Z,100263.84
2023-06-17T20:17:08.631Z,100252.50
2023-06-17T20:19:36.103Z,100253.75
2023-06-17T20:22:03.587Z,100259.97
2023-06-17T20:24:30.876Z,100262.06
2023-06-17T20:26:59.482Z,100264.53
2023-06-17T20:29:26.863Z,100264.66
2023-06-17T20:31:54.377Z,100253.19
2023-06-17T20:34:23.433Z,100264.94
2023-06-17T20:36:51.734Z,100259.53
2023-06-17T20:39:18.988Z,100255.22
2023-06-17T20:41:46.446Z,100252.03
2023-06-17T20:44:13.624Z,100243.31
2023-06-17T20:46:40.891Z,100249.69
2023-06-17T20:49:08.472Z,100252.91
2023-06-17T20:51:36.154Z,100247.50
2023-06-17T20:54:03.584Z,100246.94
2023-06-17T20:56:37.059Z,100244.47
2023-06-17T20:59:04.384Z,100247.50
2023-06-17T21:01:31.920Z,100253.87
2023-06-17T21:03:59.149Z,100249.59
2023-06-17T21:06:26.350Z,100251.13
2023-06-17T21:08:53.887Z,100251.13
2023-06-17T21:11:21.291Z,100252.78
2023-06-17T21:13:48.474Z,100250.28
2023-06-17T21:16:16.277Z,100254.16
2023-06-17T21:18:43.574Z,100259.56
2023-06-17T21:21:11.043Z,100253.59
2023-06-17T21:23:38.608Z,100253.06
2023-06-17T21:26:05.856Z,100253.31
2023-06-17T21:28:33.050Z,100252.62
2023-06-17T21:31:00.535Z,100263.31
2023-06-17T21:33:27.827Z,100260.81
2023-06-17T21:35:55.244Z,100273.38
2023-06-17T21:38:22.812Z,100260.69
2023-06-17T21:40:50.048Z,100264.94
2023-06-17T21:43:17.223Z,100263.16
2023-06-17T21:45:44.718Z,100262.44
2023-06-17T21:48:12.113Z,100268.06
2023-06-17T21:50:42.250Z,100262.38
2023-06-17T21:53:09.900Z,100265.31
2023-06-17T21:55:37.065Z,100262.00
2023-06-17T21:58:04.349Z,100276.78
2023-06-17T22:00:31.821Z,100282.28
2023-06-17T22:02:59.364Z,100282.56
2023-06-17T22:05:27.852Z,100280.50
2023-06-17T22:07:55.152Z,100279.81
2023-06-17T22:10:22.935Z,100278.94
2023-06-17T22:12:51.600Z,100273.44
2023-06-17T22:15:18.815Z,100278.53
2023-06-17T22:17:46.652Z,100283.25
2023-06-17T22:20:14.808Z,100288.75
2023-06-17T22:22:42.981Z,100271.66
2023-06-17T22:25:10.450Z,100277.41
2023-06-17T22:27:37.675Z,100274.03
2023-06-17T22:30:05.420Z,100271.25
2023-06-17T22:32:33.240Z,100273.56
2023-06-17T22:35:00.821Z,100276.31
2023-06-17T22:37:28.071Z,100266.50
2023-06-17T22:39:55.602Z,100271.06
2023-06-17T22:42:22.888Z,100273.88
2023-06-17T22:44:50.148Z,100272.66
2023-06-17T22:47:17.642Z,100269.38
2023-06-17T22:49:44.896Z,100271.84
2023-06-17T22:52:12.062Z,100272.81
2023-06-17T22:54:39.629Z,100273.69
2023-06-17T22:57:07.610Z,100282.81
2023-06-17T22:59:34.870Z,100274.09
2023-06-17T23:02:02.626Z,100279.75
2023-06-17T23:04:31.845Z,100281.84
2023-06-17T23:06:59.993Z,100282.16
2023-06-17T23:09:27.534Z,100283.81
2023-06-17T23:11:54.742Z,100282.00
2023-06-17T23:14:24.800Z,100280.34
2023-06-17T23:16:52.573Z,100290.78
2023-06-17T23:19:19.907Z,100288.50
2023-06-17T23:21:47.108Z,100290.47
2023-06-17T23:24:15.214Z,100294.97
2023-06-17T23:26:42.462Z,100289.50
2023-06-17T23:29:12.748Z,100294.94
2023-06-17T23:31:40.561Z,100293.97
2023-06-17T23:34:07.804Z,100296.16
2023-06-17T23:36:35.020Z,100300.56
2023-06-17T23:39:02.658Z,100298.44
2023-06-17T23:41:29.907Z,100290.97
2023-06-17T23:43:57.173Z,100297.09
2023-06-17T23:46:25.172Z,100295.31
2023-06-17T23:48:52.377Z,100296.84
2023-06-17T23:51:19.922Z,100300.31
2023-06-17T23:53:47.405Z,100300.53
2023-06-17T23:56:14.868Z,100297.34
2023-06-17T23:58:42.156Z,100307.09
